Aérodrome :
LOGIN :

S'inscrire | Disclaimer

   EN    FR    IT 

 










Légende :    VFR   VFR Marginal   IFR   IFR Intensif   IFR Très Intensif
Visi : 
Plafond : 
>= 8 km
>= 3000ft
5 à 8 km
1000 à 3000 ft
1500m à 5 km
500 à 1000 ft
800 à 1500m
200 à 500 ft
< 800m
< 200 ft
Symboles :   Orages  Brouillard  Fortes neiges  Fortes précipitations  Vent > 20 kt
SIGMETs :   Divers  Orages  Givrage  Turbulence  Onde Orograph.  Cendres Volcan.






- Altitude de l'aérodrome : 157 ft


LESB - Son Bonet

DERNIER METAR :
  • 251730Z AUTO 15008G19KT 100V230 CAVOK 25/13 Q1025

METARs EXPIRÉS :
  • 251700Z AUTO 29006KT 250V330 CAVOK 26/11 Q1024
  • 251630Z AUTO VRB03KT CAVOK 27/12 Q1025
  • 251600Z AUTO 10004KT 040V160 CAVOK 26/12 Q1025
  • 251530Z AUTO 04005KT 010V100 CAVOK 26/12 Q1025
  • 251500Z AUTO VRB02KT CAVOK 26/11 Q1025

TAF N/A



MET'MAP, la Météo Aéronautique d'un coup d'oeil ! - Copyright ORBIFLY Décembre 2007 - Disclaimer

ORBIFLY MET'MAP TEAM :

Programmation & Développement : Alexandra Zaïnal
Sur une idée originale de : Baudouin d'Aumeries
Assistance à la programmation : Marc-Olivier Méhu
Soutien technique & logistique : Manuel Goepfert

Contact : metmap@orbifly.com




SOURCES & CREDITS :

   NOAA